Portada
METAR-TAF:

METAR-TAF

Aeroports :

Bamako, Mali

latitud: 12-32N, longitud: 007-57W, altitud: 380 m

Observació

L'informe es va fer fa 33 minuts, a les 17:00 UTC
Vent 6 kt del Est, variant entre Nord/Nord-Est i Sud-Est
Temperatura 37°C
Humitat 9%
Pressió 1010 hPa
Visibilitat 10 km o més
sense núvols per sota de 1500 mi sense presència de cumulonimbus.

METAR: GABS 261700Z 08006KT 030V130 CAVOK 37/M01 Q1010 NOSIG

Hora: 17:33 (17:33 UTC)

Pronòstic

L'informe es va fer fa 6 hores i 8 minuts, a les 11:25 UTC
Pronòstic vàlid del 26 a les 12 UTC al 27 a les 18 UTC
Vent 10 kt del Nord-Est amb ràfegues de 20 kt
Visibilitat: 8000 m

TAF: GABS 261125Z 2612/2718 05010G20KT 8000 NSC

Observacions i pronòstics meteorològics de més de 4000 aeroports (METAR i TAF).

Les estacions disponibles són els punts grocs i vermells al mapa.

Posi el ratolí al punt desitjat per veure el nom de l'estació.

Feu clic per veure les observacions i els pronòstics meteorològics.

Per canviar el mapa: feu clic els botons verds amb una creu de color negre per apropar; al botó verd amb un guió per allunyar la imatge; o en les fletxes verdes per a mapes adjacents.


METAR-TAF: